createdAt,value
2017-03-30T00:00:02.827Z,0
2017-03-30T00:00:43.457Z,0
2017-03-30T00:01:24.113Z,0
2017-03-30T00:02:05.800Z,0
2017-03-30T00:02:46.442Z,0
2017-03-30T00:03:27.034Z,0
2017-03-30T00:04:07.722Z,0
2017-03-30T00:04:48.300Z,0
2017-03-30T00:05:28.959Z,0
2017-03-30T00:06:09.559Z,0
2017-03-30T00:06:50.210Z,0
2017-03-30T00:07:30.815Z,0
2017-03-30T00:08:11.470Z,0
2017-03-30T00:08:52.060Z,0
2017-03-30T00:09:32.736Z,0
2017-03-30T00:10:13.339Z,0
2017-03-30T00:10:53.978Z,0
2017-03-30T00:11:34.567Z,0
2017-03-30T00:12:15.246Z,0
2017-03-30T00:12:55.834Z,0
2017-03-30T00:13:37.520Z,0
2017-03-30T00:14:18.163Z,0
2017-03-30T00:14:59.856Z,0
2017-03-30T00:15:40.506Z,0
2017-03-30T00:16:21.144Z,0
2017-03-30T00:17:01.812Z,0
2017-03-30T00:17:42.443Z,0
2017-03-30T00:18:23.029Z,0
2017-03-30T00:19:03.693Z,0
2017-03-30T00:19:44.325Z,0
2017-03-30T00:20:24.974Z,0
2017-03-30T00:21:05.574Z,0
2017-03-30T00:21:46.220Z,0
2017-03-30T00:22:26.830Z,0
2017-03-30T00:23:07.467Z,0
2017-03-30T00:23:48.131Z,0
2017-03-30T00:24:28.773Z,0
2017-03-30T00:25:09.435Z,0
2017-03-30T00:25:50.096Z,0
2017-03-30T00:26:30.733Z,0
2017-03-30T00:27:11.402Z,0
2017-03-30T00:27:52.036Z,0
2017-03-30T00:28:32.707Z,0
2017-03-30T00:29:13.361Z,0
2017-03-30T00:29:54.107Z,0
2017-03-30T00:30:34.754Z,0
2017-03-30T00:31:15.407Z,0
2017-03-30T00:31:56.075Z,0
2017-03-30T00:32:36.717Z,0
2017-03-30T00:33:17.371Z,0
2017-03-30T00:33:58.015Z,0
2017-03-30T00:34:38.661Z,0
2017-03-30T00:35:19.338Z,0
2017-03-30T00:35:59.990Z,0
2017-03-30T00:36:40.635Z,0
2017-03-30T00:37:21.289Z,0
2017-03-30T00:38:01.860Z,0
2017-03-30T00:38:42.547Z,0
2017-03-30T00:39:23.146Z,0
2017-03-30T00:40:03.713Z,0
2017-03-30T00:40:44.304Z,0
2017-03-30T00:41:24.959Z,0
2017-03-30T00:42:05.566Z,0
2017-03-30T00:42:46.195Z,0
2017-03-30T00:43:26.850Z,0
2017-03-30T00:44:07.507Z,0
2017-03-30T00:44:48.160Z,0
2017-03-30T00:45:28.825Z,0
2017-03-30T00:46:09.467Z,0
2017-03-30T00:46:50.128Z,0
2017-03-30T00:47:30.779Z,0
2017-03-30T00:48:11.433Z,0
2017-03-30T00:48:52.080Z,0
2017-03-30T00:49:32.744Z,0
2017-03-30T00:50:13.394Z,0
2017-03-30T00:50:54.037Z,0
2017-03-30T00:51:34.696Z,0
2017-03-30T00:52:15.342Z,0
2017-03-30T00:52:55.934Z,0
2017-03-30T00:53:36.569Z,0
2017-03-30T00:54:17.201Z,0
2017-03-30T00:54:57.783Z,0
2017-03-30T00:55:38.425Z,0
2017-03-30T00:56:19.056Z,0
2017-03-30T00:56:59.640Z,0
2017-03-30T00:57:40.265Z,0
2017-03-30T00:58:20.935Z,0
2017-03-30T00:59:01.590Z,0
2017-03-30T00:59:42.218Z,0
2017-03-30T01:00:22.913Z,0
2017-03-30T01:01:03.546Z,0
2017-03-30T01:01:44.188Z,0
2017-03-30T01:02:24.844Z,0
2017-03-30T01:03:05.545Z,0
2017-03-30T01:03:46.149Z,0
2017-03-30T01:04:26.789Z,0
2017-03-30T01:05:07.456Z,0
2017-03-30T01:05:48.112Z,0
2017-03-30T01:06:28.760Z,0
2017-03-30T01:07:11.348Z,0
2017-03-30T01:07:51.987Z,0
2017-03-30T01:08:33.677Z,0
2017-03-30T01:09:14.257Z,0
2017-03-30T01:09:54.933Z,0
2017-03-30T01:10:36.588Z,0
2017-03-30T01:11:17.209Z,0
2017-03-30T01:11:57.812Z,0
2017-03-30T01:12:38.466Z,0
2017-03-30T01:13:19.065Z,0
2017-03-30T01:13:59.738Z,0
2017-03-30T01:14:40.298Z,0
2017-03-30T01:15:20.987Z,0
2017-03-30T01:16:01.591Z,0
2017-03-30T01:16:44.279Z,0
2017-03-30T01:17:24.856Z,0
2017-03-30T01:18:05.948Z,0
2017-03-30T01:18:46.594Z,0
2017-03-30T01:19:27.248Z,0
2017-03-30T01:20:07.906Z,0
2017-03-30T01:20:48.573Z,0
2017-03-30T01:21:29.208Z,0
2017-03-30T01:22:09.884Z,0
2017-03-30T01:22:50.513Z,0
2017-03-30T01:23:32.088Z,0
2017-03-30T01:24:12.741Z,0
2017-03-30T01:24:53.421Z,0
2017-03-30T01:25:34.070Z,0
2017-03-30T01:26:14.697Z,0
2017-03-30T01:26:55.380Z,0
2017-03-30T01:27:36.001Z,0
2017-03-30T01:28:16.603Z,0
2017-03-30T01:28:57.183Z,0
2017-03-30T01:29:37.830Z,0
2017-03-30T01:30:18.460Z,0
2017-03-30T01:30:59.033Z,0
2017-03-30T01:31:39.677Z,0
2017-03-30T01:32:20.319Z,0
2017-03-30T01:33:00.900Z,0
2017-03-30T01:33:41.544Z,0
2017-03-30T01:34:22.175Z,0
2017-03-30T01:35:02.750Z,0
2017-03-30T01:35:43.327Z,0
2017-03-30T01:36:23.946Z,0
2017-03-30T01:37:04.582Z,0
2017-03-30T01:37:45.158Z,0
2017-03-30T01:38:25.748Z,0
2017-03-30T01:39:06.457Z,0
2017-03-30T01:39:47.100Z,0
2017-03-30T01:40:27.666Z,0
2017-03-30T01:41:08.242Z,0
2017-03-30T01:41:48.867Z,0
2017-03-30T01:42:29.502Z,0
2017-03-30T01:43:10.162Z,0
2017-03-30T01:43:50.808Z,0
2017-03-30T01:44:31.457Z,0
2017-03-30T01:45:12.120Z,0
2017-03-30T01:45:52.772Z,0
2017-03-30T01:46:33.424Z,0
2017-03-30T01:47:14.075Z,0
2017-03-30T01:47:54.644Z,0
2017-03-30T01:48:35.252Z,0
2017-03-30T01:49:15.933Z,0
2017-03-30T01:49:56.593Z,0
2017-03-30T01:50:37.175Z,0
2017-03-30T01:51:18.776Z,0
2017-03-30T01:51:59.367Z,0
2017-03-30T01:52:40.017Z,0
2017-03-30T01:53:20.584Z,0
2017-03-30T01:54:01.235Z,0
2017-03-30T01:54:41.890Z,0
2017-03-30T01:55:22.462Z,0
2017-03-30T01:56:03.077Z,0
2017-03-30T01:56:43.736Z,0
2017-03-30T01:57:24.313Z,0
2017-03-30T01:58:04.937Z,0
2017-03-30T01:58:45.588Z,0
2017-03-30T01:59:26.250Z,0
2017-03-30T02:00:06.899Z,0
2017-03-30T02:00:47.545Z,0
2017-03-30T02:01:28.200Z,0
2017-03-30T02:02:08.859Z,0
2017-03-30T02:02:49.507Z,0
2017-03-30T02:03:30.167Z,0
2017-03-30T02:04:10.819Z,0
2017-03-30T02:04:51.464Z,0
2017-03-30T02:05:32.124Z,0
2017-03-30T02:06:12.779Z,0
2017-03-30T02:06:53.421Z,0
2017-03-30T02:07:34.072Z,0
2017-03-30T02:08:14.642Z,0
2017-03-30T02:08:56.270Z,0
2017-03-30T02:09:36.863Z,0
2017-03-30T02:10:17.503Z,0
2017-03-30T02:10:58.088Z,0
2017-03-30T02:11:38.766Z,0
2017-03-30T02:12:19.375Z,0
2017-03-30T02:13:00.021Z,0
2017-03-30T02:13:41.932Z,0
2017-03-30T02:14:23.577Z,0
2017-03-30T02:15:04.227Z,0
2017-03-30T02:15:44.806Z,0
2017-03-30T02:16:25.438Z,0
2017-03-30T02:17:06.085Z,0
2017-03-30T02:17:46.665Z,0
2017-03-30T02:18:27.283Z,0
2017-03-30T02:19:07.940Z,0
2017-03-30T02:19:48.623Z,0
2017-03-30T02:20:29.244Z,0
2017-03-30T02:21:09.898Z,0
2017-03-30T02:21:50.481Z,0
2017-03-30T02:22:32.141Z,0
2017-03-30T02:23:12.785Z,0
2017-03-30T02:23:53.431Z,0
2017-03-30T02:24:34.091Z,0
2017-03-30T02:25:14.737Z,0
2017-03-30T02:25:55.385Z,0
2017-03-30T02:26:36.057Z,0
2017-03-30T02:27:16.695Z,0
2017-03-30T02:27:57.348Z,0
2017-03-30T02:28:38.017Z,0
2017-03-30T02:29:18.659Z,0
2017-03-30T02:29:59.317Z,0
2017-03-30T02:30:39.957Z,0
2017-03-30T02:31:20.611Z,0
2017-03-30T02:32:01.271Z,0
2017-03-30T02:32:41.913Z,0
2017-03-30T02:33:22.480Z,0
2017-03-30T02:34:03.116Z,0
2017-03-30T02:34:43.768Z,0
2017-03-30T02:35:24.353Z,0
2017-03-30T02:36:04.976Z,0
2017-03-30T02:36:45.625Z,0
2017-03-30T02:37:26.189Z,0
2017-03-30T02:38:06.829Z,0
2017-03-30T02:38:47.481Z,0
2017-03-30T02:39:28.135Z,0
2017-03-30T02:40:08.788Z,0
2017-03-30T02:40:49.440Z,0
2017-03-30T02:41:30.094Z,0
2017-03-30T02:42:10.747Z,0
2017-03-30T02:42:51.330Z,0
2017-03-30T02:43:31.905Z,0
2017-03-30T02:44:12.506Z,0
2017-03-30T02:44:53.158Z,0
2017-03-30T02:45:33.750Z,0
2017-03-30T02:46:14.457Z,0
2017-03-30T02:46:55.115Z,0
2017-03-30T02:47:35.768Z,0
2017-03-30T02:48:16.415Z,0
2017-03-30T02:48:57.081Z,0
2017-03-30T02:49:37.729Z,0
2017-03-30T02:50:18.388Z,0
2017-03-30T02:50:59.037Z,0
2017-03-30T02:51:39.691Z,0
2017-03-30T02:52:20.341Z,0
2017-03-30T02:53:00.919Z,0
2017-03-30T02:53:41.560Z,0
2017-03-30T02:54:22.202Z,0
2017-03-30T02:55:02.774Z,0
2017-03-30T02:55:43.405Z,0
2017-03-30T02:56:24.050Z,0
2017-03-30T02:57:04.631Z,0
2017-03-30T02:57:45.262Z,0
2017-03-30T02:58:25.915Z,0
2017-03-30T02:59:06.561Z,0
2017-03-30T02:59:47.215Z,0
2017-03-30T03:00:27.895Z,0
2017-03-30T03:01:08.518Z,0
2017-03-30T03:01:49.171Z,0
2017-03-30T03:02:29.830Z,0
2017-03-30T03:03:10.478Z,0
2017-03-30T03:03:51.133Z,0
2017-03-30T03:04:31.782Z,0
2017-03-30T03:05:12.437Z,0
2017-03-30T03:05:53.108Z,0
2017-03-30T03:06:33.752Z,0
2017-03-30T03:07:14.398Z,0
2017-03-30T03:07:54.978Z,0
2017-03-30T03:08:35.560Z,0
2017-03-30T03:09:16.157Z,0
2017-03-30T03:09:56.805Z,0
2017-03-30T03:10:37.383Z,0
2017-03-30T03:11:18.058Z,0
2017-03-30T03:11:58.660Z,0
2017-03-30T03:12:39.310Z,0
2017-03-30T03:13:19.979Z,0
2017-03-30T03:14:00.618Z,0
2017-03-30T03:14:41.271Z,0
2017-03-30T03:15:21.929Z,0
2017-03-30T03:16:02.575Z,0
2017-03-30T03:16:43.232Z,0
2017-03-30T03:17:23.882Z,0
2017-03-30T03:18:04.461Z,0
2017-03-30T03:18:45.044Z,0
2017-03-30T03:19:25.650Z,0
2017-03-30T03:20:06.293Z,0
2017-03-30T03:20:46.857Z,0
2017-03-30T03:21:27.461Z,0
2017-03-30T03:22:08.042Z,0
2017-03-30T03:22:48.698Z,0
2017-03-30T03:23:29.352Z,0
2017-03-30T03:24:10.003Z,0
2017-03-30T03:24:50.668Z,0
2017-03-30T03:25:31.311Z,0
2017-03-30T03:26:11.995Z,0
2017-03-30T03:26:52.616Z,0
2017-03-30T03:27:33.271Z,0
2017-03-30T03:28:13.842Z,0
2017-03-30T03:28:54.420Z,0
2017-03-30T03:29:35.049Z,0
2017-03-30T03:30:15.674Z,0
2017-03-30T03:30:56.228Z,0
2017-03-30T03:31:36.815Z,0
2017-03-30T03:32:17.428Z,0
2017-03-30T03:32:58.082Z,0
2017-03-30T03:33:39.612Z,0
2017-03-30T03:34:20.214Z,0
2017-03-30T03:35:01.892Z,0
2017-03-30T03:35:42.545Z,0
2017-03-30T03:36:23.218Z,0
2017-03-30T03:37:03.846Z,0
2017-03-30T03:37:44.501Z,0
2017-03-30T03:38:25.161Z,0
2017-03-30T03:39:05.808Z,0
2017-03-30T03:39:46.461Z,0
2017-03-30T03:40:27.247Z,0
2017-03-30T03:41:07.976Z,0
2017-03-30T03:41:48.637Z,0
2017-03-30T03:42:29.271Z,0
2017-03-30T03:43:09.942Z,0
2017-03-30T03:43:50.587Z,0
2017-03-30T03:44:31.281Z,0
2017-03-30T03:45:11.886Z,0
2017-03-30T03:45:52.549Z,0
2017-03-30T03:46:33.197Z,0
2017-03-30T03:47:13.846Z,0
2017-03-30T03:47:54.411Z,0
2017-03-30T03:48:35.010Z,0
2017-03-30T03:49:15.629Z,0
2017-03-30T03:49:57.278Z,0
2017-03-30T03:50:37.843Z,0
2017-03-30T03:51:18.545Z,0
2017-03-30T03:51:59.249Z,0
2017-03-30T03:52:39.892Z,0
2017-03-30T03:53:20.454Z,0
2017-03-30T03:54:01.155Z,0
2017-03-30T03:54:41.806Z,0
2017-03-30T03:55:22.485Z,0
2017-03-30T03:56:03.101Z,0
2017-03-30T03:56:43.782Z,0
2017-03-30T03:57:24.504Z,0
2017-03-30T03:58:05.288Z,0
2017-03-30T03:58:45.990Z,0
2017-03-30T03:59:26.735Z,0
2017-03-30T04:00:07.367Z,0
2017-03-30T04:00:48.095Z,0
2017-03-30T04:01:28.804Z,0
2017-03-30T04:02:09.450Z,0
2017-03-30T04:02:50.028Z,0
2017-03-30T04:03:30.690Z,0
2017-03-30T04:04:11.361Z,0
2017-03-30T04:04:52.022Z,0
2017-03-30T04:05:32.772Z,0
2017-03-30T04:06:13.531Z,0
2017-03-30T04:06:54.204Z,0
2017-03-30T04:07:34.930Z,0
2017-03-30T04:08:15.738Z,0
2017-03-30T04:08:56.387Z,0
2017-03-30T04:09:37.041Z,0
2017-03-30T04:10:17.796Z,0
2017-03-30T04:10:58.553Z,0
2017-03-30T04:11:39.298Z,0
2017-03-30T04:12:20.062Z,0
2017-03-30T04:13:00.718Z,0
2017-03-30T04:13:41.463Z,0
2017-03-30T04:14:22.121Z,0
2017-03-30T04:15:02.780Z,0
2017-03-30T04:15:43.427Z,0
2017-03-30T04:16:24.082Z,0
2017-03-30T04:17:04.837Z,0
2017-03-30T04:17:45.490Z,0
2017-03-30T04:18:26.051Z,0
2017-03-30T04:19:06.797Z,0
2017-03-30T04:19:47.447Z,0
2017-03-30T04:20:28.027Z,0
2017-03-30T04:21:08.754Z,0
2017-03-30T04:21:49.407Z,0
2017-03-30T04:22:29.962Z,0
2017-03-30T04:23:11.726Z,0
2017-03-30T04:23:52.388Z,0
2017-03-30T04:24:32.942Z,0
2017-03-30T04:25:13.544Z,0
2017-03-30T04:25:54.247Z,0
2017-03-30T04:26:34.898Z,0
2017-03-30T04:27:15.454Z,0
2017-03-30T04:27:56.057Z,0
2017-03-30T04:28:36.649Z,0
2017-03-30T04:29:17.220Z,0
2017-03-30T04:29:57.830Z,0
2017-03-30T04:30:38.536Z,0
2017-03-30T04:31:19.096Z,0
2017-03-30T04:31:59.710Z,0
2017-03-30T04:32:40.365Z,0
2017-03-30T04:33:20.937Z,0
2017-03-30T04:34:01.569Z,0
2017-03-30T04:34:42.219Z,0
2017-03-30T04:35:22.871Z,0
2017-03-30T04:36:03.440Z,0
2017-03-30T04:36:44.056Z,0
2017-03-30T04:37:24.729Z,0
2017-03-30T04:38:05.380Z,0
2017-03-30T04:38:46.123Z,4
2017-03-30T04:39:26.687Z,0
2017-03-30T04:40:07.272Z,0
2017-03-30T04:40:47.882Z,0
2017-03-30T04:41:28.542Z,0
2017-03-30T04:42:09.121Z,0
2017-03-30T04:42:50.704Z,0
2017-03-30T04:43:33.291Z,0
2017-03-30T04:44:13.919Z,0
2017-03-30T04:44:54.615Z,0
2017-03-30T04:45:35.328Z,0
2017-03-30T04:46:15.979Z,4
2017-03-30T04:46:56.632Z,4
2017-03-30T04:47:37.284Z,4
2017-03-30T04:48:17.865Z,4
2017-03-30T04:48:58.582Z,4
2017-03-30T04:49:39.271Z,4
2017-03-30T04:50:19.897Z,4
2017-03-30T04:51:00.465Z,4
2017-03-30T04:51:44.381Z,4
2017-03-30T04:52:25.341Z,4
2017-03-30T04:53:06.865Z,8
2017-03-30T04:53:47.483Z,4
2017-03-30T04:54:28.175Z,4
2017-03-30T04:55:08.870Z,8
2017-03-30T04:55:49.441Z,8
2017-03-30T04:56:30.073Z,8
2017-03-30T04:57:10.725Z,12
2017-03-30T04:57:51.472Z,8
2017-03-30T04:58:32.033Z,8
2017-03-30T04:59:12.685Z,12
2017-03-30T04:59:53.266Z,12
2017-03-30T05:00:33.902Z,16
2017-03-30T05:01:14.540Z,12
2017-03-30T05:01:55.103Z,16
2017-03-30T05:02:35.733Z,16
2017-03-30T05:03:16.398Z,16
2017-03-30T05:03:56.984Z,20
2017-03-30T05:04:37.663Z,20
2017-03-30T05:05:18.256Z,24
2017-03-30T05:05:58.909Z,20
2017-03-30T05:06:39.495Z,28
2017-03-30T05:07:20.196Z,28
2017-03-30T05:08:00.780Z,28
2017-03-30T05:08:41.422Z,36
2017-03-30T05:09:22.067Z,36
2017-03-30T05:10:02.738Z,36
2017-03-30T05:10:43.372Z,44
2017-03-30T05:11:24.025Z,44
2017-03-30T05:12:04.686Z,48
2017-03-30T05:12:45.330Z,52
2017-03-30T05:13:25.988Z,60
2017-03-30T05:14:06.637Z,60
2017-03-30T05:14:47.291Z,64
2017-03-30T05:15:27.942Z,68
2017-03-30T05:16:08.594Z,76
2017-03-30T05:16:49.247Z,80
2017-03-30T05:17:29.902Z,88
2017-03-30T05:18:10.576Z,92
2017-03-30T05:18:51.207Z,100
2017-03-30T05:19:31.859Z,104
2017-03-30T05:20:13.540Z,116
2017-03-30T05:20:54.190Z,120
2017-03-30T05:21:34.842Z,128
2017-03-30T05:22:15.609Z,140
2017-03-30T05:22:56.148Z,156
2017-03-30T05:23:36.734Z,168
2017-03-30T05:24:17.351Z,184
2017-03-30T05:24:58.004Z,200
2017-03-30T05:25:38.593Z,212
2017-03-30T05:26:19.223Z,228
2017-03-30T05:26:59.861Z,244
2017-03-30T05:27:40.440Z,252
2017-03-30T05:28:21.063Z,260
2017-03-30T05:29:01.715Z,264
2017-03-30T05:29:42.385Z,276
2017-03-30T05:30:23.026Z,284
2017-03-30T05:31:03.673Z,296
2017-03-30T05:31:44.542Z,308
2017-03-30T05:32:26.905Z,316
2017-03-30T05:33:07.800Z,328
2017-03-30T05:33:48.985Z,332
2017-03-30T05:34:30.164Z,340
2017-03-30T05:35:10.977Z,344
2017-03-30T05:35:51.986Z,348
2017-03-30T05:36:32.743Z,356
2017-03-30T05:37:13.362Z,364
2017-03-30T05:37:53.971Z,372
2017-03-30T05:38:34.584Z,376
2017-03-30T05:39:15.218Z,380
2017-03-30T05:39:55.910Z,388
2017-03-30T05:40:36.543Z,396
2017-03-30T05:41:17.187Z,412
2017-03-30T05:41:57.852Z,424
2017-03-30T05:42:38.497Z,432
2017-03-30T05:43:19.168Z,452
2017-03-30T05:43:59.983Z,456
2017-03-30T05:44:40.765Z,472
2017-03-30T05:45:21.425Z,480
2017-03-30T05:46:02.989Z,496
2017-03-30T05:46:43.577Z,512
2017-03-30T05:47:24.153Z,524
2017-03-30T05:48:04.765Z,536
2017-03-30T05:48:45.375Z,548
2017-03-30T05:49:25.936Z,560
2017-03-30T05:50:06.551Z,580
2017-03-30T05:50:47.154Z,600
2017-03-30T05:51:27.790Z,612
2017-03-30T05:52:08.344Z,632
2017-03-30T05:52:48.967Z,652
2017-03-30T05:53:29.680Z,672
2017-03-30T05:54:10.286Z,692
2017-03-30T05:54:50.948Z,712
2017-03-30T05:55:31.611Z,732
2017-03-30T05:56:12.290Z,752
2017-03-30T05:56:52.925Z,776
2017-03-30T05:57:33.556Z,796
2017-03-30T05:58:14.211Z,820
2017-03-30T05:58:54.874Z,844
2017-03-30T05:59:35.453Z,868
2017-03-30T06:00:16.111Z,884
2017-03-30T06:00:56.723Z,912
2017-03-30T06:01:37.403Z,928
2017-03-30T06:02:17.982Z,952
2017-03-30T06:02:58.658Z,976
2017-03-30T06:03:39.225Z,1004
2017-03-30T06:04:19.944Z,1024
2017-03-30T06:05:00.560Z,1048
2017-03-30T06:05:41.201Z,1068
2017-03-30T06:06:21.843Z,1092
2017-03-30T06:07:03.521Z,1112
2017-03-30T06:07:44.196Z,1140
2017-03-30T06:08:24.835Z,1164
2017-03-30T06:09:11.024Z,1184
2017-03-30T06:09:51.673Z,1204
2017-03-30T06:10:32.346Z,1224
2017-03-30T06:11:12.986Z,1244
2017-03-30T06:11:53.656Z,1264
2017-03-30T06:12:35.320Z,1280
2017-03-30T06:13:16.058Z,1296
2017-03-30T06:13:56.838Z,1308
2017-03-30T06:14:37.472Z,1320
2017-03-30T06:15:18.117Z,1328
2017-03-30T06:15:58.787Z,1344
2017-03-30T06:16:39.418Z,1352
2017-03-30T06:17:20.093Z,1368
2017-03-30T06:18:00.723Z,1384
2017-03-30T06:18:41.358Z,1400
2017-03-30T06:19:22.065Z,1416
2017-03-30T06:20:03.729Z,1428
2017-03-30T06:20:44.407Z,1448
2017-03-30T06:21:25.047Z,1472
2017-03-30T06:22:05.670Z,1488
2017-03-30T06:22:46.255Z,1500
2017-03-30T06:23:26.886Z,1524
2017-03-30T06:24:07.525Z,1544
2017-03-30T06:24:48.134Z,1564
2017-03-30T06:25:28.907Z,1588
2017-03-30T06:26:09.582Z,1616
2017-03-30T06:26:50.184Z,1648
2017-03-30T06:27:30.813Z,1680
2017-03-30T06:28:11.474Z,1716
2017-03-30T06:28:52.115Z,1760
2017-03-30T06:29:32.735Z,1804
2017-03-30T06:30:13.417Z,1860
2017-03-30T06:30:54.063Z,1912
2017-03-30T06:31:34.716Z,1988
2017-03-30T06:32:15.346Z,2040
2017-03-30T06:32:56.087Z,2108
2017-03-30T06:33:36.705Z,2172
2017-03-30T06:34:17.322Z,2236
2017-03-30T06:34:57.945Z,2300
2017-03-30T06:35:38.702Z,2356
2017-03-30T06:36:19.443Z,2412
2017-03-30T06:37:00.146Z,2472
2017-03-30T06:37:40.760Z,2516
2017-03-30T06:38:22.290Z,2544
2017-03-30T06:39:02.994Z,2612
2017-03-30T06:39:43.678Z,2656
2017-03-30T06:40:24.293Z,2696
2017-03-30T06:41:04.966Z,2736
2017-03-30T06:41:45.596Z,2776
2017-03-30T06:42:27.255Z,2808
2017-03-30T06:43:07.929Z,2848
2017-03-30T06:43:48.560Z,2880
2017-03-30T06:44:29.301Z,2916
2017-03-30T06:45:09.993Z,2944
2017-03-30T06:45:50.662Z,2972
2017-03-30T06:46:31.315Z,2992
2017-03-30T06:47:11.941Z,3008
2017-03-30T06:47:52.619Z,3024
2017-03-30T06:48:33.286Z,3032
2017-03-30T06:49:13.937Z,3036
2017-03-30T06:49:54.506Z,3024
2017-03-30T06:50:35.136Z,3024
2017-03-30T06:51:15.823Z,3032
2017-03-30T06:51:56.672Z,3004
2017-03-30T06:52:37.350Z,3000
2017-03-30T06:53:18.059Z,3016
2017-03-30T06:53:58.631Z,2956
2017-03-30T06:54:39.330Z,2924
2017-03-30T06:55:20.015Z,2908
2017-03-30T06:56:00.622Z,2884
2017-03-30T06:56:41.220Z,2860
2017-03-30T06:57:23.833Z,2836
2017-03-30T06:58:04.435Z,2812
2017-03-30T06:58:45.035Z,2804
2017-03-30T06:59:25.608Z,2804
2017-03-30T07:00:06.352Z,2808
2017-03-30T07:00:48.209Z,2820
2017-03-30T07:01:28.881Z,2844
2017-03-30T07:02:09.515Z,2872
2017-03-30T07:02:50.183Z,2908
2017-03-30T07:03:30.749Z,2948
2017-03-30T07:04:11.464Z,2988
2017-03-30T07:04:52.158Z,3036
2017-03-30T07:05:32.791Z,3084
2017-03-30T07:06:13.366Z,3136
2017-03-30T07:06:54.119Z,3192
2017-03-30T07:07:34.747Z,3252
2017-03-30T07:08:16.433Z,3316
2017-03-30T07:08:57.067Z,3384
2017-03-30T07:09:37.798Z,3456
2017-03-30T07:10:18.378Z,3528
2017-03-30T07:10:59.033Z,3604
2017-03-30T07:11:39.691Z,3684
2017-03-30T07:12:20.340Z,3772
2017-03-30T07:13:00.993Z,3864
2017-03-30T07:13:41.604Z,3960
2017-03-30T07:14:22.283Z,4064
2017-03-30T07:15:03.970Z,4172
2017-03-30T07:15:44.631Z,4252
2017-03-30T07:16:25.204Z,4372
2017-03-30T07:17:05.912Z,4456
2017-03-30T07:17:46.584Z,4500
2017-03-30T07:18:27.220Z,4592
2017-03-30T07:19:07.895Z,4644
2017-03-30T07:19:48.506Z,4728
2017-03-30T07:20:29.119Z,4704
2017-03-30T07:21:09.765Z,4700
2017-03-30T07:21:50.413Z,4712
2017-03-30T07:22:31.035Z,4736
2017-03-30T07:23:11.770Z,4668
2017-03-30T07:23:52.359Z,4656
2017-03-30T07:24:32.975Z,4616
2017-03-30T07:25:13.570Z,4580
2017-03-30T07:25:54.231Z,4536
2017-03-30T07:26:34.823Z,4496
2017-03-30T07:27:15.530Z,4452
2017-03-30T07:27:56.192Z,4420
2017-03-30T07:28:36.801Z,4364
2017-03-30T07:29:17.592Z,4312
2017-03-30T07:29:58.275Z,4256
2017-03-30T07:30:38.844Z,4164
2017-03-30T07:31:19.395Z,4084
2017-03-30T07:31:59.988Z,4008
2017-03-30T07:32:40.612Z,3928
2017-03-30T07:33:23.231Z,3836
2017-03-30T07:34:03.814Z,3764
2017-03-30T07:34:44.402Z,3648
2017-03-30T07:35:24.976Z,3572
2017-03-30T07:36:06.573Z,3512
2017-03-30T07:36:47.135Z,3448
2017-03-30T07:37:27.732Z,3416
2017-03-30T07:38:08.312Z,3396
2017-03-30T07:38:48.874Z,3404
2017-03-30T07:39:29.442Z,3432
2017-03-30T07:40:10.020Z,3492
2017-03-30T07:40:51.581Z,3576
2017-03-30T07:41:32.159Z,3688
2017-03-30T07:42:12.740Z,3784
2017-03-30T07:42:53.307Z,3972
2017-03-30T07:43:33.882Z,4136
2017-03-30T07:44:14.506Z,4328
2017-03-30T07:44:55.132Z,4520
2017-03-30T07:45:35.697Z,4740
2017-03-30T07:46:16.279Z,4964
2017-03-30T07:46:56.835Z,5144
2017-03-30T07:47:37.464Z,5260
2017-03-30T07:48:18.077Z,5328
2017-03-30T07:48:58.650Z,5372
2017-03-30T07:49:41.821Z,5380
2017-03-30T07:50:22.425Z,5404
2017-03-30T07:51:03.001Z,5512
2017-03-30T07:51:43.592Z,5436
2017-03-30T07:52:24.174Z,5400
2017-03-30T07:53:04.773Z,5360
2017-03-30T07:53:45.349Z,5392
2017-03-30T07:54:25.939Z,5472
2017-03-30T07:55:06.512Z,5212
2017-03-30T07:55:47.098Z,5016
2017-03-30T07:56:28.020Z,4988
2017-03-30T07:57:08.675Z,5068
2017-03-30T07:57:49.317Z,5112
2017-03-30T07:58:29.909Z,5204
2017-03-30T07:59:10.461Z,5320
2017-03-30T07:59:51.021Z,5444
2017-03-30T08:00:31.640Z,5532
2017-03-30T08:01:12.312Z,5560
2017-03-30T08:01:52.895Z,5612
2017-03-30T08:02:33.479Z,5628
2017-03-30T08:03:14.070Z,5640
2017-03-30T08:03:54.664Z,5632
2017-03-30T08:04:35.284Z,5600
2017-03-30T08:05:15.929Z,5504
2017-03-30T08:05:56.577Z,5472
2017-03-30T08:06:37.144Z,5400
2017-03-30T08:07:17.728Z,5304
2017-03-30T08:07:58.325Z,5208
2017-03-30T08:08:38.918Z,5060
2017-03-30T08:09:19.500Z,4916
2017-03-30T08:10:00.079Z,4748
2017-03-30T08:10:40.697Z,4580
2017-03-30T08:11:21.290Z,4436
2017-03-30T08:12:01.860Z,4292
2017-03-30T08:12:42.416Z,4164
2017-03-30T08:13:23.017Z,4104
2017-03-30T08:14:03.629Z,4092
2017-03-30T08:14:44.184Z,4112
2017-03-30T08:15:24.758Z,4172
2017-03-30T08:16:05.388Z,4252
2017-03-30T08:16:45.958Z,4340
2017-03-30T08:17:26.566Z,4472
2017-03-30T08:18:07.135Z,5340
2017-03-30T08:18:47.708Z,5152
2017-03-30T08:19:28.319Z,4640
2017-03-30T08:20:08.883Z,5308
2017-03-30T08:20:49.479Z,5124
2017-03-30T08:21:30.065Z,4888
2017-03-30T08:22:10.676Z,5180
2017-03-30T08:22:51.274Z,5120
2017-03-30T08:23:31.843Z,5104
2017-03-30T08:24:12.419Z,4940
2017-03-30T08:24:53.018Z,4828
2017-03-30T08:25:33.597Z,4224
2017-03-30T08:26:15.174Z,5072
2017-03-30T08:26:55.878Z,5024
2017-03-30T08:27:36.490Z,4412
2017-03-30T08:28:17.073Z,4396
2017-03-30T08:28:57.698Z,4452
2017-03-30T08:29:38.265Z,4948
2017-03-30T08:30:18.872Z,4936
2017-03-30T08:30:59.444Z,4924
2017-03-30T08:31:40.087Z,4984
2017-03-30T08:32:20.712Z,4936
2017-03-30T08:33:03.315Z,5004
2017-03-30T08:33:43.908Z,5060
2017-03-30T08:34:25.507Z,5060
2017-03-30T08:35:07.088Z,5076
2017-03-30T08:35:47.678Z,5056
2017-03-30T08:36:28.258Z,5084
2017-03-30T08:37:08.828Z,5104
2017-03-30T08:37:49.409Z,4820
2017-03-30T08:38:30.030Z,4716
2017-03-30T08:39:10.619Z,4956
2017-03-30T08:39:53.214Z,5368
2017-03-30T08:40:33.814Z,5528
2017-03-30T08:41:14.404Z,5568
2017-03-30T08:41:55.014Z,5608
2017-03-30T08:42:35.589Z,5792
2017-03-30T08:43:16.187Z,6104
2017-03-30T08:43:56.798Z,6132
2017-03-30T08:44:37.392Z,6664
2017-03-30T08:45:17.951Z,6900
2017-03-30T08:45:58.530Z,7112
2017-03-30T08:46:39.102Z,7316
2017-03-30T08:47:19.684Z,7348
2017-03-30T08:48:00.237Z,7060
2017-03-30T08:48:40.817Z,6760
2017-03-30T08:49:21.395Z,6964
2017-03-30T08:50:01.973Z,6696
2017-03-30T08:50:42.557Z,7064
2017-03-30T08:51:23.171Z,6440
2017-03-30T08:52:03.822Z,6036
2017-03-30T08:52:44.354Z,5908
2017-03-30T08:53:24.929Z,5888
2017-03-30T08:54:05.491Z,5864
2017-03-30T08:54:46.086Z,5984
2017-03-30T08:55:27.677Z,6052
2017-03-30T08:56:08.254Z,6868
2017-03-30T08:56:48.893Z,7144
2017-03-30T08:57:29.489Z,7036
2017-03-30T08:58:10.093Z,6836
2017-03-30T08:58:50.734Z,6620
2017-03-30T08:59:31.369Z,5716
2017-03-30T09:00:11.935Z,6068
2017-03-30T09:00:52.539Z,5368
2017-03-30T09:01:33.113Z,5332
2017-03-30T09:02:14.688Z,5216
2017-03-30T09:02:55.298Z,5124
2017-03-30T09:03:35.881Z,5256
2017-03-30T09:04:16.479Z,5028
2017-03-30T09:05:01.754Z,4996
2017-03-30T09:05:42.348Z,4832
2017-03-30T09:06:22.975Z,4744
2017-03-30T09:07:03.574Z,4472
2017-03-30T09:07:44.177Z,4368
2017-03-30T09:08:24.749Z,4324
2017-03-30T09:09:05.352Z,4968
2017-03-30T09:09:46.022Z,4940
2017-03-30T09:10:26.603Z,4652
2017-03-30T09:11:07.192Z,5204
2017-03-30T09:11:47.794Z,4964
2017-03-30T09:12:28.393Z,5212
2017-03-30T09:13:08.994Z,5732
2017-03-30T09:13:49.645Z,5440
2017-03-30T09:14:30.217Z,5444
2017-03-30T09:15:10.944Z,5412
2017-03-30T09:15:51.592Z,5420
2017-03-30T09:16:32.153Z,5400
2017-03-30T09:17:12.886Z,5356
2017-03-30T09:17:53.566Z,5360
2017-03-30T09:18:34.317Z,5352
2017-03-30T09:19:14.892Z,5300
2017-03-30T09:19:55.697Z,5216
2017-03-30T09:20:36.365Z,5204
2017-03-30T09:21:16.920Z,5276
2017-03-30T09:21:57.556Z,5240
2017-03-30T09:22:38.248Z,5256
2017-03-30T09:23:18.925Z,5300
2017-03-30T09:23:59.546Z,5300
2017-03-30T09:24:44.966Z,5288
2017-03-30T09:25:25.646Z,5232
2017-03-30T09:26:06.311Z,5120
2017-03-30T09:26:47.994Z,5100
2017-03-30T09:27:28.767Z,5076
2017-03-30T09:28:09.500Z,5076
2017-03-30T09:28:52.194Z,5132
2017-03-30T09:29:32.987Z,5196
2017-03-30T09:30:14.813Z,5212
2017-03-30T09:30:55.489Z,5204
2017-03-30T09:31:36.143Z,5172
2017-03-30T09:32:16.792Z,5172
2017-03-30T09:32:57.537Z,5256
2017-03-30T09:33:38.202Z,5256
2017-03-30T09:34:18.764Z,5288